Time,TemperatureF,DewpointF,PressureIn,WindDirection,WindDirectionDegrees,WindSpeedMPH,WindSpeedGustMPH,Humidity,HourlyPrecipIn,Conditions,Clouds,dailyrainin,SoftwareType,DateUTC
2013-03-13 00:00:00,47.3,42.7,30.15,WNW,296,0.0,0.0,84,0.00,,,0.00,Wunderground v.1.15,2013-03-13 07:00:00,
2013-03-13 00:10:00,46.8,42.5,30.15,WNW,296,0.0,0.0,85,0.00,,,0.00,Wunderground v.1.15,2013-03-13 07:10:00,
2013-03-13 00:15:00,46.7,42.4,30.15,WNW,296,0.0,0.0,85,0.00,,,0.00,Wunderground v.1.15,2013-03-13 07:15:00,
2013-03-13 00:20:00,46.4,42.1,30.15,WNW,296,0.0,0.0,85,0.00,,,0.00,Wunderground v.1.15,2013-03-13 07:20:00,
2013-03-13 00:30:00,46.2,42.2,30.15,WNW,296,0.0,0.0,86,0.00,,,0.00,Wunderground v.1.15,2013-03-13 07:30:00,
2013-03-13 00:35:00,46.1,42.1,30.15,WNW,296,0.0,1.0,86,0.00,,,0.00,Wunderground v.1.15,2013-03-13 07:35:00,
2013-03-13 00:40:00,46.0,42.0,30.15,WNW,296,0.0,0.0,86,0.00,,,0.00,Wunderground v.1.15,2013-03-13 07:40:00,
2013-03-13 00:45:00,45.8,42.2,30.15,WNW,296,0.0,0.0,87,0.00,,,0.00,Wunderground v.1.15,2013-03-13 07:45:00,
2013-03-13 00:50:00,45.7,42.1,30.15,WNW,296,0.0,2.0,87,0.00,,,0.00,Wunderground v.1.15,2013-03-13 07:50:00,
2013-03-13 00:55:00,45.5,41.9,30.15,WNW,296,0.0,2.0,87,0.00,,,0.00,Wunderground v.1.15,2013-03-13 07:55:00,
2013-03-13 01:00:00,45.4,41.8,30.15,WNW,296,0.0,0.0,87,0.00,,,0.00,Wunderground v.1.15,2013-03-13 08:00:00,
2013-03-13 01:10:00,45.1,41.5,30.15,WNW,296,0.0,0.0,87,0.00,,,0.00,Wunderground v.1.15,2013-03-13 08:10:00,
2013-03-13 01:15:00,44.9,41.3,30.15,WNW,296,0.0,0.0,87,0.00,,,0.00,Wunderground v.1.15,2013-03-13 08:15:00,
2013-03-13 01:25:00,44.6,41.3,30.15,WNW,296,0.0,0.0,88,0.00,,,0.00,Wunderground v.1.15,2013-03-13 08:25:00,
2013-03-13 01:30:00,44.5,41.2,30.15,WNW,296,0.0,0.0,88,0.00,,,0.00,Wunderground v.1.15,2013-03-13 08:30:00,
2013-03-13 01:40:00,44.3,41.0,30.15,WNW,296,0.0,0.0,88,0.00,,,0.00,Wunderground v.1.15,2013-03-13 08:40:00,
2013-03-13 01:45:00,44.2,40.9,30.15,WNW,296,0.0,0.0,88,0.00,,,0.00,Wunderground v.1.15,2013-03-13 08:45:00,
2013-03-13 01:50:00,44.1,40.8,30.15,WNW,296,0.0,0.0,88,0.00,,,0.00,Wunderground v.1.15,2013-03-13 08:50:00,
2013-03-13 02:00:00,43.8,40.5,30.16,WNW,296,0.0,0.0,88,0.00,,,0.00,Wunderground v.1.15,2013-03-13 09:00:00,
2013-03-13 02:05:00,43.6,40.6,30.16,WNW,296,0.0,0.0,89,0.00,,,0.00,Wunderground v.1.15,2013-03-13 09:05:00,
2013-03-13 02:15:00,43.6,40.6,30.16,WNW,296,0.0,2.0,89,0.00,,,0.00,Wunderground v.1.15,2013-03-13 09:15:00,
2013-03-13 02:20:00,43.5,40.5,30.16,WNW,296,0.0,0.0,89,0.00,,,0.00,Wunderground v.1.15,2013-03-13 09:20:00,
2013-03-13 02:30:00,42.9,39.9,30.16,WNW,296,0.0,0.0,89,0.00,,,0.00,Wunderground v.1.15,2013-03-13 09:30:00,
2013-03-13 02:35:00,42.8,39.8,30.16,WNW,296,0.0,0.0,89,0.00,,,0.00,Wunderground v.1.15,2013-03-13 09:35:00,
2013-03-13 02:40:00,42.8,40.1,30.16,WNW,296,0.0,0.0,90,0.00,,,0.00,Wunderground v.1.15,2013-03-13 09:40:00,
2013-03-13 02:50:00,42.9,40.2,30.17,WNW,296,0.0,0.0,90,0.00,,,0.00,Wunderground v.1.15,2013-03-13 09:50:00,
2013-03-13 02:55:00,42.6,39.6,30.17,WNW,296,0.0,1.0,89,0.00,,,0.00,Wunderground v.1.15,2013-03-13 09:55:00,
2013-03-13 03:00:00,42.3,39.6,30.17,WNW,296,0.0,0.0,90,0.00,,,0.00,Wunderground v.1.15,2013-03-13 10:00:00,
2013-03-13 03:05:00,42.2,39.5,30.17,WNW,296,0.0,0.0,90,0.00,,,0.00,Wunderground v.1.15,2013-03-13 10:05:00,
2013-03-13 03:10:00,42.2,39.5,30.17,WNW,296,0.0,0.0,90,0.00,,,0.00,Wunderground v.1.15,2013-03-13 10:10:00,
2013-03-13 03:15:00,42.1,39.4,30.17,WNW,296,0.0,0.0,90,0.00,,,0.00,Wunderground v.1.15,2013-03-13 10:15:00,
2013-03-13 03:25:00,41.9,39.2,30.17,WNW,296,0.0,0.0,90,0.00,,,0.00,Wunderground v.1.15,2013-03-13 10:25:00,
2013-03-13 03:30:00,41.9,39.2,30.17,WNW,296,0.0,0.0,90,0.00,,,0.00,Wunderground v.1.15,2013-03-13 10:30:00,
2013-03-13 03:40:00,41.6,38.9,30.17,WNW,296,1.0,1.0,90,0.00,,,0.00,Wunderground v.1.15,2013-03-13 10:40:00,
2013-03-13 03:45:00,41.3,38.6,30.17,WNW,296,0.0,1.0,90,0.00,,,0.00,Wunderground v.1.15,2013-03-13 10:45:00,
2013-03-13 03:55:00,41.2,38.8,30.17,WNW,296,0.0,0.0,91,0.00,,,0.00,Wunderground v.1.15,2013-03-13 10:55:00,
2013-03-13 04:00:00,41.1,38.7,30.17,WNW,296,0.0,0.0,91,0.00,,,0.00,Wunderground v.1.15,2013-03-13 11:00:00,
2013-03-13 04:10:00,41.1,38.7,30.17,WNW,296,0.0,1.0,91,0.00,,,0.00,Wunderground v.1.15,2013-03-13 11:10:00,
2013-03-13 04:20:00,41.1,38.7,30.17,WNW,296,1.0,1.0,91,0.00,,,0.00,Wunderground v.1.15,2013-03-13 11:20:00,
2013-03-13 04:25:00,40.9,38.5,30.17,WNW,296,0.0,1.0,91,0.00,,,0.00,Wunderground v.1.15,2013-03-13 11:25:00,
2013-03-13 04:35:00,40.8,38.4,30.17,WNW,296,0.0,0.0,91,0.00,,,0.00,Wunderground v.1.15,2013-03-13 11:35:00,
2013-03-13 04:40:00,40.6,38.2,30.17,WNW,296,0.0,0.0,91,0.00,,,0.00,Wunderground v.1.15,2013-03-13 11:40:00,
2013-03-13 04:50:00,40.6,38.2,30.17,WNW,296,0.0,1.0,91,0.00,,,0.00,Wunderground v.1.15,2013-03-13 11:50:00,
2013-03-13 04:55:00,40.6,38.2,30.17,WNW,296,1.0,1.0,91,0.00,,,0.00,Wunderground v.1.15,2013-03-13 11:55:00,
2013-03-13 05:00:00,40.3,37.9,30.17,WNW,296,0.0,1.0,91,0.00,,,0.00,Wunderground v.1.15,2013-03-13 12:00:00,
2013-03-13 05:10:00,40.1,37.7,30.17,WNW,296,0.0,0.0,91,0.00,,,0.00,Wunderground v.1.15,2013-03-13 12:10:00,
2013-03-13 05:15:00,40.2,38.1,30.17,WNW,296,0.0,0.0,92,0.00,,,0.00,Wunderground v.1.15,2013-03-13 12:15:00,
2013-03-13 05:25:00,39.9,37.8,30.17,WNW,296,0.0,0.0,92,0.00,,,0.00,Wunderground v.1.15,2013-03-13 12:25:00,
2013-03-13 05:30:00,39.6,37.5,30.17,WNW,296,0.0,0.0,92,0.00,,,0.00,Wunderground v.1.15,2013-03-13 12:30:00,
2013-03-13 05:40:00,39.5,37.4,30.17,WNW,296,0.0,0.0,92,0.00,,,0.00,Wunderground v.1.15,2013-03-13 12:40:00,
2013-03-13 05:45:00,39.3,37.2,30.17,WNW,296,0.0,0.0,92,0.00,,,0.00,Wunderground v.1.15,2013-03-13 12:45:00,
2013-03-13 05:50:00,39.2,37.1,30.17,WNW,296,0.0,0.0,92,0.00,,,0.00,Wunderground v.1.15,2013-03-13 12:50:00,
2013-03-13 05:55:00,39.2,37.1,30.17,WNW,296,0.0,0.0,92,0.00,,,0.00,Wunderground v.1.15,2013-03-13 12:55:00,
2013-03-13 06:05:00,39.2,37.1,30.17,WNW,296,0.0,0.0,92,0.00,,,0.00,Wunderground v.1.15,2013-03-13 13:05:00,
2013-03-13 06:15:00,38.9,36.8,30.18,WNW,296,0.0,1.0,92,0.00,,,0.00,Wunderground v.1.15,2013-03-13 13:15:00,
2013-03-13 06:20:00,38.8,36.7,30.18,WNW,296,0.0,2.0,92,0.00,,,0.00,Wunderground v.1.15,2013-03-13 13:20:00,
2013-03-13 06:25:00,38.8,36.7,30.18,WNW,296,0.0,2.0,92,0.00,,,0.00,Wunderground v.1.15,2013-03-13 13:25:00,
2013-03-13 06:30:00,38.6,36.5,30.18,WNW,296,0.0,1.0,92,0.00,,,0.00,Wunderground v.1.15,2013-03-13 13:30:00,
2013-03-13 06:40:00,38.5,36.4,30.18,WNW,296,0.0,0.0,92,0.00,,,0.00,Wunderground v.1.15,2013-03-13 13:40:00,
2013-03-13 06:45:00,38.3,36.2,30.18,WNW,296,0.0,0.0,92,0.00,,,0.00,Wunderground v.1.15,2013-03-13 13:45:00,
2013-03-13 06:50:00,38.3,36.2,30.18,WNW,296,0.0,0.0,92,0.00,,,0.00,Wunderground v.1.15,2013-03-13 13:50:00,
2013-03-13 07:00:00,38.2,36.1,30.19,WNW,296,0.0,1.0,92,0.00,,,0.00,Wunderground v.1.15,2013-03-13 14:00:00,
2013-03-13 07:10:00,37.9,35.8,30.19,WNW,296,0.0,0.0,92,0.00,,,0.00,Wunderground v.1.15,2013-03-13 14:10:00,
2013-03-13 07:15:00,37.9,35.8,30.19,WNW,296,0.0,0.0,92,0.00,,,0.00,Wunderground v.1.15,2013-03-13 14:15:00,
2013-03-13 07:20:00,38.0,35.9,30.19,WNW,296,0.0,0.0,92,0.00,,,0.00,Wunderground v.1.15,2013-03-13 14:20:00,
2013-03-13 07:30:00,38.0,35.9,30.19,WNW,296,0.0,0.0,92,0.00,,,0.00,Wunderground v.1.15,2013-03-13 14:30:00,
2013-03-13 07:35:00,37.9,35.8,30.19,WNW,296,0.0,0.0,92,0.00,,,0.00,Wunderground v.1.15,2013-03-13 14:35:00,
2013-03-13 07:40:00,37.9,35.8,30.19,WNW,296,0.0,0.0,92,0.00,,,0.00,Wunderground v.1.15,2013-03-13 14:40:00,
2013-03-13 07:45:00,37.9,36.1,30.19,WNW,296,0.0,0.0,93,0.00,,,0.00,Wunderground v.1.15,2013-03-13 14:45:00,
2013-03-13 07:50:00,38.0,36.2,30.19,WNW,296,0.0,0.0,93,0.00,,,0.00,Wunderground v.1.15,2013-03-13 14:50:00,
2013-03-13 08:00:00,38.5,36.7,30.19,WNW,296,0.0,0.0,93,0.00,,,0.00,Wunderground v.1.15,2013-03-13 15:00:00,
2013-03-13 08:05:00,38.6,36.8,30.19,WNW,296,0.0,0.0,93,0.00,,,0.00,Wunderground v.1.15,2013-03-13 15:05:00,
2013-03-13 08:10:00,38.9,37.0,30.19,WNW,296,0.0,0.0,93,0.00,,,0.00,Wunderground v.1.15,2013-03-13 15:10:00,
2013-03-13 08:20:00,39.5,37.6,30.19,WNW,296,0.0,0.0,93,0.00,,,0.00,Wunderground v.1.15,2013-03-13 15:20:00,
2013-03-13 08:25:00,39.8,37.9,30.19,WNW,296,0.0,0.0,93,0.00,,,0.00,Wunderground v.1.15,2013-03-13 15:25:00,
2013-03-13 08:30:00,40.1,38.2,30.19,WNW,296,0.0,0.0,93,0.00,,,0.00,Wunderground v.1.15,2013-03-13 15:30:00,
2013-03-13 08:45:00,41.2,39.3,30.19,WNW,296,0.0,0.0,93,0.00,,,0.00,Wunderground v.1.15,2013-03-13 15:45:00,
2013-03-13 08:50:00,41.8,39.9,30.19,WNW,296,0.0,0.0,93,0.00,,,0.00,Wunderground v.1.15,2013-03-13 15:50:00,
2013-03-13 08:55:00,42.3,40.4,30.19,WNW,296,0.0,0.0,93,0.00,,,0.00,Wunderground v.1.15,2013-03-13 15:55:00,
2013-03-13 09:05:00,44.3,42.7,30.19,WNW,296,0.0,0.0,94,0.00,,,0.00,Wunderground v.1.15,2013-03-13 16:05:00,
2013-03-13 09:10:00,45.5,43.6,30.19,WNW,296,0.0,0.0,93,0.00,,,0.00,Wunderground v.1.15,2013-03-13 16:10:00,
2013-03-13 09:15:00,46.7,44.5,30.19,WNW,296,0.0,0.0,92,0.00,,,0.00,Wunderground v.1.15,2013-03-13 16:15:00,
2013-03-13 09:20:00,47.6,45.1,30.19,WNW,296,0.0,0.0,91,0.00,,,0.00,Wunderground v.1.15,2013-03-13 16:20:00,
2013-03-13 09:30:00,49.1,46.0,30.20,WNW,296,0.0,1.0,89,0.00,,,0.00,Wunderground v.1.15,2013-03-13 16:30:00,
2013-03-13 09:35:00,49.9,46.2,30.20,WNW,296,1.0,1.0,87,0.00,,,0.00,Wunderground v.1.15,2013-03-13 16:35:00,
2013-03-13 09:40:00,50.8,46.5,30.20,WNW,296,1.0,1.0,85,0.00,,,0.00,Wunderground v.1.15,2013-03-13 16:40:00,
2013-03-13 09:55:00,55.0,47.9,30.20,WNW,296,0.0,1.0,77,0.00,,,0.00,Wunderground v.1.15,2013-03-13 16:55:00,
2013-03-13 10:05:00,57.3,48.3,30.18,WNW,296,0.0,0.0,72,0.00,,,0.00,Wunderground v.1.15,2013-03-13 17:05:00,
2013-03-13 10:10:00,58.3,48.6,30.18,WNW,296,0.0,3.0,70,0.00,,,0.00,Wunderground v.1.15,2013-03-13 17:10:00,
2013-03-13 10:15:00,58.4,48.7,30.19,West,276,1.0,3.0,70,0.00,,,0.00,Wunderground v.1.15,2013-03-13 17:15:00,
2013-03-13 10:25:00,61.2,49.7,30.19,SW,221,0.0,1.0,66,0.00,,,0.00,Wunderground v.1.15,2013-03-13 17:25:00,
2013-03-13 10:30:00,61.6,49.3,30.18,SW,221,1.0,1.0,64,0.00,,,0.00,Wunderground v.1.15,2013-03-13 17:30:00,
2013-03-13 10:35:00,62.0,49.7,30.18,SW,221,1.0,1.0,64,0.00,,,0.00,Wunderground v.1.15,2013-03-13 17:35:00,
2013-03-13 10:40:00,62.1,49.4,30.18,SW,221,1.0,1.0,63,0.00,,,0.00,Wunderground v.1.15,2013-03-13 17:40:00,
2013-03-13 10:50:00,64.8,49.7,30.18,SW,221,0.0,0.0,58,0.00,,,0.00,Wunderground v.1.15,2013-03-13 17:50:00,
2013-03-13 10:55:00,64.8,49.7,30.18,SW,221,1.0,1.0,58,0.00,,,0.00,Wunderground v.1.15,2013-03-13 17:55:00,
2013-03-13 11:00:00,65.5,49.9,30.18,SW,221,1.0,3.0,57,0.00,,,0.00,Wunderground v.1.15,2013-03-13 18:00:00,
2013-03-13 11:10:00,66.9,49.7,30.18,SW,221,0.0,0.0,54,0.00,,,0.00,Wunderground v.1.15,2013-03-13 18:10:00,
2013-03-13 11:15:00,67.6,49.9,30.17,SW,221,0.0,0.0,53,0.00,,,0.00,Wunderground v.1.15,2013-03-13 18:15:00,
2013-03-13 11:20:00,67.8,50.0,30.17,SW,221,0.0,0.0,53,0.00,,,0.00,Wunderground v.1.15,2013-03-13 18:20:00,
2013-03-13 11:25:00,67.6,48.8,30.17,South,171,0.0,0.0,51,0.00,,,0.00,Wunderground v.1.15,2013-03-13 18:25:00,
2013-03-13 11:35:00,69.8,49.8,30.17,West,274,0.0,0.0,49,0.00,,,0.00,Wunderground v.1.15,2013-03-13 18:35:00,
2013-03-13 11:40:00,70.3,48.5,30.17,SE,144,1.0,1.0,46,0.00,,,0.00,Wunderground v.1.15,2013-03-13 18:40:00,
2013-03-13 11:50:00,70.8,49.0,30.17,ESE,115,1.0,1.0,46,0.00,,,0.00,Wunderground v.1.15,2013-03-13 18:50:00,
2013-03-13 11:55:00,70.8,49.0,30.17,NNE,26,1.0,1.0,46,0.00,,,0.00,Wunderground v.1.15,2013-03-13 18:55:00,
2013-03-13 12:05:00,71.8,48.1,30.16,SE,142,0.0,2.0,43,0.00,,,0.00,Wunderground v.1.15,2013-03-13 19:05:00,
2013-03-13 12:10:00,71.5,49.0,30.16,ENE,73,1.0,2.0,45,0.00,,,0.00,Wunderground v.1.15,2013-03-13 19:10:00,
2013-03-13 12:15:00,71.8,48.1,30.16,SE,132,1.0,2.0,43,0.00,,,0.00,Wunderground v.1.15,2013-03-13 19:15:00,
2013-03-13 12:25:00,73.2,49.4,30.16,SE,140,1.0,3.0,43,0.00,,,0.00,Wunderground v.1.15,2013-03-13 19:25:00,
2013-03-13 12:30:00,72.8,48.4,30.15,SE,124,2.0,4.0,42,0.00,,,0.00,Wunderground v.1.15,2013-03-13 19:30:00,
2013-03-13 12:35:00,72.3,48.5,30.15,SSW,198,2.0,4.0,43,0.00,,,0.00,Wunderground v.1.15,2013-03-13 19:35:00,
2013-03-13 12:45:00,72.7,48.3,30.15,East,90,2.0,5.0,42,0.00,,,0.00,Wunderground v.1.15,2013-03-13 19:45:00,
2013-03-13 12:54:00,73.5,47.7,30.15,East,90,1.0,2.0,40,0.00,,,0.00,Wunderground v.1.15,2013-03-13 19:54:00,
2013-03-13 13:00:00,74.0,47.5,30.15,SW,231,1.0,1.0,39,0.00,,,0.00,Wunderground v.1.15,2013-03-13 20:00:00,
2013-03-13 13:10:00,74.4,46.4,30.15,ESE,106,1.0,7.0,37,0.00,,,0.00,Wunderground v.1.15,2013-03-13 20:10:00,
2013-03-13 13:20:00,74.6,45.1,30.15,South,185,1.0,4.0,35,0.00,,,0.00,Wunderground v.1.15,2013-03-13 20:20:00,
2013-03-13 13:30:00,75.3,45.7,30.14,ENE,78,1.0,1.0,35,0.00,,,0.00,Wunderground v.1.15,2013-03-13 20:30:00,
2013-03-13 13:35:00,75.8,45.4,30.14,ESE,113,1.0,3.0,34,0.00,,,0.00,Wunderground v.1.15,2013-03-13 20:35:00,
2013-03-13 13:40:00,75.1,42.4,30.14,South,182,2.0,2.0,31,0.00,,,0.00,Wunderground v.1.15,2013-03-13 20:40:00,
2013-03-13 13:50:00,76.1,44.9,30.14,ESE,119,1.0,2.0,33,0.00,,,0.00,Wunderground v.1.15,2013-03-13 20:50:00,
2013-03-13 13:55:00,75.1,44.0,30.14,East,101,2.0,5.0,33,0.00,,,0.00,Wunderground v.1.15,2013-03-13 20:55:00,
2013-03-13 14:00:00,75.3,43.4,30.13,ESE,123,3.0,3.0,32,0.00,,,0.00,Wunderground v.1.15,2013-03-13 21:00:00,
2013-03-13 14:05:00,75.4,43.5,30.13,SE,134,2.0,3.0,32,0.00,,,0.00,Wunderground v.1.15,2013-03-13 21:05:00,
2013-03-13 14:10:00,75.6,40.2,30.13,NE,53,2.0,2.0,28,0.00,,,0.00,Wunderground v.1.15,2013-03-13 21:10:00,
2013-03-13 14:20:00,76.0,43.2,30.12,East,86,2.0,6.0,31,0.00,,,0.00,Wunderground v.1.15,2013-03-13 21:20:00,
2013-03-13 14:25:00,75.6,43.7,30.12,East,82,3.0,6.0,32,0.00,,,0.00,Wunderground v.1.15,2013-03-13 21:25:00,
2013-03-13 14:35:00,76.1,42.4,30.12,East,86,2.0,4.0,30,0.00,,,0.00,Wunderground v.1.15,2013-03-13 21:35:00,
2013-03-13 14:40:00,76.3,40.8,30.12,East,82,3.0,3.0,28,0.00,,,0.00,Wunderground v.1.15,2013-03-13 21:40:00,
2013-03-13 14:50:00,77.2,40.6,30.10,ENE,75,2.0,2.0,27,0.00,,,0.00,Wunderground v.1.15,2013-03-13 21:50:00,
2013-03-13 14:55:00,77.4,40.8,30.10,East,88,3.0,3.0,27,0.00,,,0.00,Wunderground v.1.15,2013-03-13 21:55:00,
2013-03-13 15:00:00,77.4,41.7,30.10,ENE,58,3.0,3.0,28,0.00,,,0.00,Wunderground v.1.15,2013-03-13 22:00:00,
2013-03-13 15:05:00,77.7,42.9,30.10,SE,124,3.0,3.0,29,0.00,,,0.00,Wunderground v.1.15,2013-03-13 22:05:00,
2013-03-13 15:15:00,77.4,41.7,30.10,East,89,2.0,2.0,28,0.00,,,0.00,Wunderground v.1.15,2013-03-13 22:15:00,
2013-03-13 15:20:00,77.4,42.6,30.10,ESE,103,3.0,3.0,29,0.00,,,0.00,Wunderground v.1.15,2013-03-13 22:20:00,
2013-03-13 15:29:00,77.9,43.1,30.10,ESE,118,1.0,5.0,29,0.00,,,0.00,Wunderground v.1.15,2013-03-13 22:29:00,
2013-03-13 15:35:00,77.9,42.2,30.10,East,84,2.0,5.0,28,0.00,,,0.00,Wunderground v.1.15,2013-03-13 22:35:00,
2013-03-13 15:50:00,78.6,42.8,30.09,SE,138,2.0,3.0,28,0.00,,,0.00,Wunderground v.1.15,2013-03-13 22:50:00,
2013-03-13 15:55:00,79.0,43.1,30.09,East,96,2.0,3.0,28,0.00,,,0.00,Wunderground v.1.15,2013-03-13 22:55:00,
2013-03-13 16:00:00,78.8,42.9,30.09,ENE,72,2.0,2.0,28,0.00,,,0.00,Wunderground v.1.15,2013-03-13 23:00:00,
2013-03-13 16:10:00,78.5,42.7,30.09,NE,41,2.0,2.0,28,0.00,,,0.00,Wunderground v.1.15,2013-03-13 23:10:00,
2013-03-13 16:15:00,78.6,42.8,30.08,NNE,32,3.0,4.0,28,0.00,,,0.00,Wunderground v.1.15,2013-03-13 23:15:00,
2013-03-13 16:20:00,78.8,42.0,30.08,East,92,3.0,5.0,27,0.00,,,0.00,Wunderground v.1.15,2013-03-13 23:20:00,
2013-03-13 16:29:00,79.2,42.3,30.08,East,95,3.0,6.0,27,0.00,,,0.00,Wunderground v.1.15,2013-03-13 23:29:00,
2013-03-13 16:35:00,79.0,42.2,30.08,ESE,117,3.0,6.0,27,0.00,,,0.00,Wunderground v.1.15,2013-03-13 23:35:00,
2013-03-13 16:40:00,78.6,42.8,30.08,SE,125,4.0,4.0,28,0.00,,,0.00,Wunderground v.1.15,2013-03-13 23:40:00,
2013-03-13 16:45:00,78.6,42.8,30.07,ESE,113,4.0,4.0,28,0.00,,,0.00,Wunderground v.1.15,2013-03-13 23:45:00,
2013-03-13 16:50:00,78.3,42.5,30.07,East,92,4.0,6.0,28,0.00,,,0.00,Wunderground v.1.15,2013-03-13 23:50:00,
2013-03-13 17:00:00,78.3,42.5,30.07,ENE,78,5.0,5.0,28,0.00,,,0.00,Wunderground v.1.15,2013-03-14 00:00:00,
2013-03-13 17:10:00,78.6,42.8,30.07,SE,135,3.0,3.0,28,0.00,,,0.00,Wunderground v.1.15,2013-03-14 00:10:00,
2013-03-13 17:15:00,78.6,42.8,30.07,SE,130,2.0,3.0,28,0.00,,,0.00,Wunderground v.1.15,2013-03-14 00:15:00,
2013-03-13 17:20:00,78.5,43.6,30.07,SSE,156,1.0,1.0,29,0.00,,,0.00,Wunderground v.1.15,2013-03-14 00:20:00,
2013-03-13 17:29:00,77.9,43.1,30.07,ESE,116,1.0,1.0,29,0.00,,,0.00,Wunderground v.1.15,2013-03-14 00:29:00,
2013-03-13 17:35:00,77.7,44.6,30.07,ESE,116,1.0,1.0,31,0.00,,,0.00,Wunderground v.1.15,2013-03-14 00:35:00,
2013-03-13 17:40:00,77.4,43.5,30.07,SE,138,1.0,1.0,30,0.00,,,0.00,Wunderground v.1.15,2013-03-14 00:40:00,
2013-03-13 17:45:00,77.2,42.5,30.07,East,84,1.0,5.0,29,0.00,,,0.00,Wunderground v.1.15,2013-03-14 00:45:00,
2013-03-13 17:55:00,76.7,43.8,30.07,SE,136,1.0,2.0,31,0.00,,,0.00,Wunderground v.1.15,2013-03-14 00:55:00,
2013-03-13 18:00:00,76.1,44.1,30.06,SE,136,0.0,0.0,32,0.00,,,0.00,Wunderground v.1.15,2013-03-14 01:00:00,
2013-03-13 18:05:00,76.0,43.2,30.06,SE,127,1.0,1.0,31,0.00,,,0.00,Wunderground v.1.15,2013-03-14 01:05:00,
2013-03-13 18:10:00,75.8,44.6,30.06,SE,128,0.0,0.0,33,0.00,,,0.00,Wunderground v.1.15,2013-03-14 01:10:00,
2013-03-13 18:19:00,75.1,44.8,30.06,SE,128,0.0,0.0,34,0.00,,,0.00,Wunderground v.1.15,2013-03-14 01:19:00,
2013-03-13 18:25:00,74.9,45.4,30.06,SE,127,0.0,0.0,35,0.00,,,0.00,Wunderground v.1.15,2013-03-14 01:25:00,
2013-03-13 18:30:00,74.6,44.4,30.06,SE,136,0.0,0.0,34,0.00,,,0.00,Wunderground v.1.15,2013-03-14 01:30:00,
2013-03-13 18:39:00,73.7,45.1,30.06,SE,136,0.0,0.0,36,0.00,,,0.00,Wunderground v.1.15,2013-03-14 01:39:00,
2013-03-13 18:45:00,72.8,45.7,30.06,SE,136,0.0,0.0,38,0.00,,,0.00,Wunderground v.1.15,2013-03-14 01:45:00,
2013-03-13 18:50:00,72.1,46.4,30.06,SE,136,0.0,0.0,40,0.00,,,0.00,Wunderground v.1.15,2013-03-14 01:50:00,
2013-03-13 18:59:00,70.8,47.2,30.06,SE,136,0.0,0.0,43,0.00,,,0.00,Wunderground v.1.15,2013-03-14 01:59:00,
2013-03-13 19:05:00,69.9,47.6,30.06,SE,136,0.0,0.0,45,0.00,,,0.00,Wunderground v.1.15,2013-03-14 02:05:00,
2013-03-13 19:15:00,68.1,48.2,30.06,SE,136,0.0,0.0,49,0.00,,,0.00,Wunderground v.1.15,2013-03-14 02:15:00,
2013-03-13 19:20:00,67.1,47.8,30.06,SE,136,0.0,0.0,50,0.00,,,0.00,Wunderground v.1.15,2013-03-14 02:20:00,
2013-03-13 19:30:00,65.3,48.2,30.07,SE,136,0.0,0.0,54,0.00,,,0.00,Wunderground v.1.15,2013-03-14 02:30:00,
2013-03-13 19:35:00,64.2,48.2,30.07,SE,136,0.0,0.0,56,0.00,,,0.00,Wunderground v.1.15,2013-03-14 02:35:00,
2013-03-13 19:40:00,63.2,47.7,30.07,SE,136,0.0,0.0,57,0.00,,,0.00,Wunderground v.1.15,2013-03-14 02:40:00,
2013-03-13 19:49:00,62.3,47.3,30.07,SE,136,0.0,0.0,58,0.00,,,0.00,Wunderground v.1.15,2013-03-14 02:49:00,
2013-03-13 19:55:00,61.5,47.0,30.07,SE,136,0.0,0.0,59,0.00,,,0.00,Wunderground v.1.15,2013-03-14 02:55:00,
2013-03-13 20:05:00,60.5,47.0,30.08,SE,136,0.0,0.0,61,0.00,,,0.00,Wunderground v.1.15,2013-03-14 03:05:00,
2013-03-13 20:10:00,60.1,47.0,30.08,SE,136,0.0,0.0,62,0.00,,,0.00,Wunderground v.1.15,2013-03-14 03:10:00,
2013-03-13 20:19:00,59.0,46.8,30.08,SE,136,0.0,0.0,64,0.00,,,0.00,Wunderground v.1.15,2013-03-14 03:19:00,
2013-03-13 20:25:00,58.6,46.5,30.08,SE,136,0.0,0.0,64,0.00,,,0.00,Wunderground v.1.15,2013-03-14 03:25:00,
2013-03-13 20:30:00,58.1,46.4,30.08,SE,136,0.0,0.0,65,0.00,,,0.00,Wunderground v.1.15,2013-03-14 03:30:00,
2013-03-13 20:35:00,57.6,45.9,30.08,SE,136,0.0,0.0,65,0.00,,,0.00,Wunderground v.1.15,2013-03-14 03:35:00,
2013-03-13 20:40:00,57.2,46.3,30.08,West,260,0.0,0.0,67,0.00,,,0.00,Wunderground v.1.15,2013-03-14 03:40:00,
2013-03-13 20:49:00,56.5,46.1,30.09,West,260,0.0,0.0,68,0.00,,,0.00,Wunderground v.1.15,2013-03-14 03:49:00,
2013-03-13 20:55:00,56.0,46.0,30.09,West,260,0.0,0.0,69,0.00,,,0.00,Wunderground v.1.15,2013-03-14 03:55:00,
2013-03-13 21:00:00,55.9,45.9,30.09,West,260,0.0,0.0,69,0.00,,,0.00,Wunderground v.1.15,2013-03-14 04:00:00,
2013-03-13 21:05:00,55.7,46.4,30.09,West,261,0.0,0.0,71,0.00,,,0.00,Wunderground v.1.15,2013-03-14 04:05:00,
2013-03-13 21:09:00,55.7,46.4,30.09,West,260,0.0,0.0,71,0.00,,,0.00,Wunderground v.1.15,2013-03-14 04:09:00,
2013-03-13 21:15:00,55.7,46.4,30.10,West,261,0.0,0.0,71,0.00,,,0.00,Wunderground v.1.15,2013-03-14 04:15:00,
2013-03-13 21:20:00,55.6,46.3,30.10,West,261,0.0,0.0,71,0.00,,,0.00,Wunderground v.1.15,2013-03-14 04:20:00,
2013-03-13 21:25:00,55.3,46.4,30.10,West,260,0.0,0.0,72,0.00,,,0.00,Wunderground v.1.15,2013-03-14 04:25:00,
2013-03-13 21:30:00,54.8,45.9,30.10,West,261,0.0,0.0,72,0.00,,,0.00,Wunderground v.1.15,2013-03-14 04:30:00,
2013-03-13 21:39:00,54.4,45.9,30.10,West,260,0.0,0.0,73,0.00,,,0.00,Wunderground v.1.15,2013-03-14 04:39:00,
2013-03-13 21:45:00,53.9,45.8,30.11,West,261,0.0,1.0,74,0.00,,,0.00,Wunderground v.1.15,2013-03-14 04:45:00,
2013-03-13 21:50:00,53.6,45.5,30.11,West,261,0.0,0.0,74,0.00,,,0.00,Wunderground v.1.15,2013-03-14 04:50:00,
2013-03-13 21:55:00,53.5,45.8,30.11,West,260,0.0,0.0,75,0.00,,,0.00,Wunderground v.1.15,2013-03-14 04:55:00,
2013-03-13 22:00:00,53.2,45.8,30.11,West,260,0.0,0.0,76,0.00,,,0.00,Wunderground v.1.15,2013-03-14 05:00:00,
2013-03-13 22:10:00,52.8,45.4,30.11,West,260,0.0,0.0,76,0.00,,,0.00,Wunderground v.1.15,2013-03-14 05:10:00,
2013-03-13 22:15:00,52.5,45.5,30.12,West,261,0.0,0.0,77,0.00,,,0.00,Wunderground v.1.15,2013-03-14 05:15:00,
2013-03-13 22:20:00,52.2,45.2,30.12,West,260,0.0,0.0,77,0.00,,,0.00,Wunderground v.1.15,2013-03-14 05:20:00,
2013-03-13 22:29:00,51.6,45.0,30.12,West,261,0.0,2.0,78,0.00,,,0.00,Wunderground v.1.15,2013-03-14 05:29:00,
2013-03-13 22:35:00,51.3,44.7,30.12,West,260,1.0,2.0,78,0.00,,,0.00,Wunderground v.1.15,2013-03-14 05:35:00,
2013-03-13 22:40:00,51.0,44.7,30.12,West,261,1.0,1.0,79,0.00,,,0.00,Wunderground v.1.15,2013-03-14 05:40:00,
2013-03-13 22:45:00,50.7,44.8,30.12,West,260,0.0,1.0,80,0.00,,,0.00,Wunderground v.1.15,2013-03-14 05:45:00,
2013-03-13 22:50:00,50.5,44.6,30.12,West,261,0.0,0.0,80,0.00,,,0.00,Wunderground v.1.15,2013-03-14 05:50:00,
2013-03-13 23:00:00,50.2,44.6,30.12,West,260,0.0,0.0,81,0.00,,,0.00,Wunderground v.1.15,2013-03-14 06:00:00,
2013-03-13 23:05:00,50.1,44.5,30.12,West,261,0.0,0.0,81,0.00,,,0.00,Wunderground v.1.15,2013-03-14 06:05:00,
2013-03-13 23:10:00,49.8,44.2,30.12,West,261,0.0,0.0,81,0.00,,,0.00,Wunderground v.1.15,2013-03-14 06:10:00,
2013-03-13 23:20:00,49.4,43.8,30.12,West,261,0.0,0.0,81,0.00,,,0.00,Wunderground v.1.15,2013-03-14 06:20:00,
2013-03-13 23:30:00,48.6,43.4,30.13,West,260,0.0,0.0,82,0.00,,,0.00,Wunderground v.1.15,2013-03-14 06:30:00,
2013-03-13 23:35:00,48.5,43.3,30.13,West,260,0.0,0.0,82,0.00,,,0.00,Wunderground v.1.15,2013-03-14 06:35:00,
2013-03-13 23:40:00,48.3,43.4,30.13,West,260,0.0,0.0,83,0.00,,,0.00,Wunderground v.1.15,2013-03-14 06:40:00,
2013-03-13 23:49:00,48.2,43.6,30.13,West,261,0.0,0.0,84,0.00,,,0.00,Wunderground v.1.15,2013-03-14 06:49:00,
2013-03-13 23:55:00,48.0,43.1,30.13,West,260,0.0,0.0,83,0.00,,,0.00,Wunderground v.1.15,2013-03-14 06:55:00,